sensor_id;sensor_type;location;lat;lon;timestamp;temperature;humidity
54034;DHT22;39952;40.122;18.294;2022-10-16T00:02:09;18.60;68.00
54034;DHT22;39952;40.122;18.294;2022-10-16T00:05:16;18.80;67.70
54034;DHT22;39952;40.122;18.294;2022-10-16T00:08:23;18.80;67.80
54034;DHT22;39952;40.122;18.294;2022-10-16T00:11:32;18.90;67.70
54034;DHT22;39952;40.122;18.294;2022-10-16T00:14:42;19.00;67.40
54034;DHT22;39952;40.122;18.294;2022-10-16T00:17:49;19.10;67.20
54034;DHT22;39952;40.122;18.294;2022-10-16T00:21:00;19.10;67.30
54034;DHT22;39952;40.122;18.294;2022-10-16T00:24:27;19.20;67.10
54034;DHT22;39952;40.122;18.294;2022-10-16T00:27:34;19.20;67.30
54034;DHT22;39952;40.122;18.294;2022-10-16T00:30:42;19.00;67.80
54034;DHT22;39952;40.122;18.294;2022-10-16T00:33:50;18.90;67.60
54034;DHT22;39952;40.122;18.294;2022-10-16T00:36:57;18.80;67.70
54034;DHT22;39952;40.122;18.294;2022-10-16T00:40:04;18.70;68.20
54034;DHT22;39952;40.122;18.294;2022-10-16T00:43:33;18.50;68.60
54034;DHT22;39952;40.122;18.294;2022-10-16T00:46:42;18.70;68.80
54034;DHT22;39952;40.122;18.294;2022-10-16T00:49:51;18.80;68.40
54034;DHT22;39952;40.122;18.294;2022-10-16T00:53:00;19.00;68.00
54034;DHT22;39952;40.122;18.294;2022-10-16T00:56:08;19.20;67.70
54034;DHT22;39952;40.122;18.294;2022-10-16T00:59:16;19.20;67.70
54034;DHT22;39952;40.122;18.294;2022-10-16T01:02:25;19.10;68.00
54034;DHT22;39952;40.122;18.294;2022-10-16T01:05:37;19.00;68.20
54034;DHT22;39952;40.122;18.294;2022-10-16T01:08:53;19.10;67.40
54034;DHT22;39952;40.122;18.294;2022-10-16T01:12:09;19.20;67.60
54034;DHT22;39952;40.122;18.294;2022-10-16T01:15:20;19.20;67.40
54034;DHT22;39952;40.122;18.294;2022-10-16T01:18:34;19.00;66.60
54034;DHT22;39952;40.122;18.294;2022-10-16T01:21:43;18.90;67.10
54034;DHT22;39952;40.122;18.294;2022-10-16T01:24:53;18.90;67.20
54034;DHT22;39952;40.122;18.294;2022-10-16T01:28:04;18.80;67.10
54034;DHT22;39952;40.122;18.294;2022-10-16T01:31:15;18.60;67.70
54034;DHT22;39952;40.122;18.294;2022-10-16T01:34:30;18.70;67.60
54034;DHT22;39952;40.122;18.294;2022-10-16T01:37:41;18.60;67.10
54034;DHT22;39952;40.122;18.294;2022-10-16T01:40:56;18.50;67.80
54034;DHT22;39952;40.122;18.294;2022-10-16T01:44:09;18.40;68.10
54034;DHT22;39952;40.122;18.294;2022-10-16T01:47:18;18.40;68.30
54034;DHT22;39952;40.122;18.294;2022-10-16T01:50:26;18.30;68.50
54034;DHT22;39952;40.122;18.294;2022-10-16T01:53:34;18.30;68.20
54034;DHT22;39952;40.122;18.294;2022-10-16T01:56:41;18.10;69.00
54034;DHT22;39952;40.122;18.294;2022-10-16T01:59:54;18.00;69.10
54034;DHT22;39952;40.122;18.294;2022-10-16T02:03:03;18.00;68.80
54034;DHT22;39952;40.122;18.294;2022-10-16T02:06:11;18.10;68.60
54034;DHT22;39952;40.122;18.294;2022-10-16T02:09:18;18.00;69.10
54034;DHT22;39952;40.122;18.294;2022-10-16T02:12:27;18.00;69.40
54034;DHT22;39952;40.122;18.294;2022-10-16T02:15:35;18.00;69.40
54034;DHT22;39952;40.122;18.294;2022-10-16T02:18:43;17.90;69.40
54034;DHT22;39952;40.122;18.294;2022-10-16T02:21:53;17.80;69.80
54034;DHT22;39952;40.122;18.294;2022-10-16T02:25:04;17.90;70.10
54034;DHT22;39952;40.122;18.294;2022-10-16T02:28:16;17.90;69.80
54034;DHT22;39952;40.122;18.294;2022-10-16T02:31:27;17.80;70.00
54034;DHT22;39952;40.122;18.294;2022-10-16T02:34:36;18.00;70.10
54034;DHT22;39952;40.122;18.294;2022-10-16T02:37:44;17.90;69.90
54034;DHT22;39952;40.122;18.294;2022-10-16T02:40:52;17.70;70.70
54034;DHT22;39952;40.122;18.294;2022-10-16T02:43:59;17.80;70.20
54034;DHT22;39952;40.122;18.294;2022-10-16T02:47:07;17.80;70.50
54034;DHT22;39952;40.122;18.294;2022-10-16T02:50:14;17.70;71.00
54034;DHT22;39952;40.122;18.294;2022-10-16T02:53:21;17.60;70.90
54034;DHT22;39952;40.122;18.294;2022-10-16T02:56:27;17.80;70.70
54034;DHT22;39952;40.122;18.294;2022-10-16T02:59:35;17.90;70.20
54034;DHT22;39952;40.122;18.294;2022-10-16T03:02:43;18.00;70.20
54034;DHT22;39952;40.122;18.294;2022-10-16T03:05:49;18.00;69.80
54034;DHT22;39952;40.122;18.294;2022-10-16T03:08:56;17.90;69.70
54034;DHT22;39952;40.122;18.294;2022-10-16T03:12:03;17.80;70.20
54034;DHT22;39952;40.122;18.294;2022-10-16T03:15:10;17.80;70.30
54034;DHT22;39952;40.122;18.294;2022-10-16T03:18:18;17.60;69.70
54034;DHT22;39952;40.122;18.294;2022-10-16T03:21:24;17.40;70.40
54034;DHT22;39952;40.122;18.294;2022-10-16T03:24:31;17.40;71.00
54034;DHT22;39952;40.122;18.294;2022-10-16T03:27:38;17.30;70.70
54034;DHT22;39952;40.122;18.294;2022-10-16T03:30:45;17.40;70.90
54034;DHT22;39952;40.122;18.294;2022-10-16T03:33:53;17.40;70.50
54034;DHT22;39952;40.122;18.294;2022-10-16T03:37:00;17.30;70.80
54034;DHT22;39952;40.122;18.294;2022-10-16T03:40:07;17.40;70.60
54034;DHT22;39952;40.122;18.294;2022-10-16T03:43:14;17.30;70.80
54034;DHT22;39952;40.122;18.294;2022-10-16T03:46:21;17.30;71.10
54034;DHT22;39952;40.122;18.294;2022-10-16T03:49:29;17.30;70.90
54034;DHT22;39952;40.122;18.294;2022-10-16T03:52:36;17.40;70.40
54034;DHT22;39952;40.122;18.294;2022-10-16T03:55:44;17.50;70.70
54034;DHT22;39952;40.122;18.294;2022-10-16T03:58:50;17.70;70.60
54034;DHT22;39952;40.122;18.294;2022-10-16T04:01:57;17.80;70.20
54034;DHT22;39952;40.122;18.294;2022-10-16T04:05:06;17.70;69.50
54034;DHT22;39952;40.122;18.294;2022-10-16T04:08:13;17.70;69.60
54034;DHT22;39952;40.122;18.294;2022-10-16T04:11:20;17.80;69.70
54034;DHT22;39952;40.122;18.294;2022-10-16T04:14:27;17.80;69.40
54034;DHT22;39952;40.122;18.294;2022-10-16T04:17:33;17.70;69.20
54034;DHT22;39952;40.122;18.294;2022-10-16T04:20:41;17.50;69.40
54034;DHT22;39952;40.122;18.294;2022-10-16T04:23:48;17.60;69.50
54034;DHT22;39952;40.122;18.294;2022-10-16T04:26:55;17.50;69.20
54034;DHT22;39952;40.122;18.294;2022-10-16T04:30:03;17.50;70.00
54034;DHT22;39952;40.122;18.294;2022-10-16T04:33:10;17.60;70.00
54034;DHT22;39952;40.122;18.294;2022-10-16T04:36:19;17.50;69.90
54034;DHT22;39952;40.122;18.294;2022-10-16T04:39:26;17.50;70.20
54034;DHT22;39952;40.122;18.294;2022-10-16T04:42:33;17.50;69.80
54034;DHT22;39952;40.122;18.294;2022-10-16T04:45:40;17.50;69.70
54034;DHT22;39952;40.122;18.294;2022-10-16T04:48:47;17.50;69.80
54034;DHT22;39952;40.122;18.294;2022-10-16T04:51:55;17.50;70.10
54034;DHT22;39952;40.122;18.294;2022-10-16T04:55:02;17.50;70.00
54034;DHT22;39952;40.122;18.294;2022-10-16T04:58:09;17.50;69.80
54034;DHT22;39952;40.122;18.294;2022-10-16T05:01:16;17.50;69.90
54034;DHT22;39952;40.122;18.294;2022-10-16T05:04:23;17.50;70.10
54034;DHT22;39952;40.122;18.294;2022-10-16T05:07:31;17.60;70.40
54034;DHT22;39952;40.122;18.294;2022-10-16T05:10:38;17.70;69.90
54034;DHT22;39952;40.122;18.294;2022-10-16T05:13:45;17.70;69.80
54034;DHT22;39952;40.122;18.294;2022-10-16T05:16:53;17.70;69.50
54034;DHT22;39952;40.122;18.294;2022-10-16T05:19:59;17.60;69.60
54034;DHT22;39952;40.122;18.294;2022-10-16T05:23:07;17.40;70.70
54034;DHT22;39952;40.122;18.294;2022-10-16T05:26:15;17.50;71.00
54034;DHT22;39952;40.122;18.294;2022-10-16T05:29:21;17.50;70.70
54034;DHT22;39952;40.122;18.294;2022-10-16T05:32:28;17.50;71.10
54034;DHT22;39952;40.122;18.294;2022-10-16T05:35:35;17.60;71.30
54034;DHT22;39952;40.122;18.294;2022-10-16T05:38:43;17.30;71.60
54034;DHT22;39952;40.122;18.294;2022-10-16T05:41:50;17.30;72.40
54034;DHT22;39952;40.122;18.294;2022-10-16T05:44:57;17.30;72.60
54034;DHT22;39952;40.122;18.294;2022-10-16T05:48:04;17.20;72.90
54034;DHT22;39952;40.122;18.294;2022-10-16T05:51:13;17.20;73.60
54034;DHT22;39952;40.122;18.294;2022-10-16T05:54:22;17.40;73.10
54034;DHT22;39952;40.122;18.294;2022-10-16T05:57:29;17.60;72.20
54034;DHT22;39952;40.122;18.294;2022-10-16T06:00:36;17.70;71.70
54034;DHT22;39952;40.122;18.294;2022-10-16T06:03:43;17.80;71.30
54034;DHT22;39952;40.122;18.294;2022-10-16T06:06:50;17.50;72.30
54034;DHT22;39952;40.122;18.294;2022-10-16T06:09:58;17.60;73.50
54034;DHT22;39952;40.122;18.294;2022-10-16T06:13:05;17.80;72.30
54034;DHT22;39952;40.122;18.294;2022-10-16T06:16:12;18.00;71.90
54034;DHT22;39952;40.122;18.294;2022-10-16T06:19:19;18.20;71.90
54034;DHT22;39952;40.122;18.294;2022-10-16T06:22:25;18.10;72.00
54034;DHT22;39952;40.122;18.294;2022-10-16T06:25:33;18.10;72.40
54034;DHT22;39952;40.122;18.294;2022-10-16T06:28:40;18.20;72.30
54034;DHT22;39952;40.122;18.294;2022-10-16T06:31:47;18.30;72.50
54034;DHT22;39952;40.122;18.294;2022-10-16T06:34:54;18.40;72.40
54034;DHT22;39952;40.122;18.294;2022-10-16T06:38:00;18.50;72.60
54034;DHT22;39952;40.122;18.294;2022-10-16T06:41:10;18.70;72.30
54034;DHT22;39952;40.122;18.294;2022-10-16T06:44:17;18.90;71.90
54034;DHT22;39952;40.122;18.294;2022-10-16T06:47:24;19.10;71.50
54034;DHT22;39952;40.122;18.294;2022-10-16T06:50:30;19.20;71.40
54034;DHT22;39952;40.122;18.294;2022-10-16T06:53:38;19.50;70.60
54034;DHT22;39952;40.122;18.294;2022-10-16T06:56:54;19.40;70.80
54034;DHT22;39952;40.122;18.294;2022-10-16T07:00:02;19.40;71.30
54034;DHT22;39952;40.122;18.294;2022-10-16T07:03:09;19.40;71.90
54034;DHT22;39952;40.122;18.294;2022-10-16T07:06:18;19.50;72.00
54034;DHT22;39952;40.122;18.294;2022-10-16T07:09:25;19.60;71.90
54034;DHT22;39952;40.122;18.294;2022-10-16T07:12:33;19.70;72.20
54034;DHT22;39952;40.122;18.294;2022-10-16T07:15:41;19.80;72.10
54034;DHT22;39952;40.122;18.294;2022-10-16T07:18:48;19.80;72.50
54034;DHT22;39952;40.122;18.294;2022-10-16T07:21:57;20.30;71.30
54034;DHT22;39952;40.122;18.294;2022-10-16T07:25:05;20.70;69.60
54034;DHT22;39952;40.122;18.294;2022-10-16T07:28:13;21.00;69.10
54034;DHT22;39952;40.122;18.294;2022-10-16T07:31:21;21.20;69.00
54034;DHT22;39952;40.122;18.294;2022-10-16T07:34:28;21.20;70.50
54034;DHT22;39952;40.122;18.294;2022-10-16T07:37:35;21.30;71.00
54034;DHT22;39952;40.122;18.294;2022-10-16T07:40:42;21.50;69.70
54034;DHT22;39952;40.122;18.294;2022-10-16T07:43:51;21.60;69.20
54034;DHT22;39952;40.122;18.294;2022-10-16T07:46:59;21.50;70.40
54034;DHT22;39952;40.122;18.294;2022-10-16T07:50:07;21.60;69.60
54034;DHT22;39952;40.122;18.294;2022-10-16T07:53:14;21.70;69.30
54034;DHT22;39952;40.122;18.294;2022-10-16T07:56:21;21.70;69.50
54034;DHT22;39952;40.122;18.294;2022-10-16T07:59:29;21.70;69.00
54034;DHT22;39952;40.122;18.294;2022-10-16T08:02:36;21.80;68.70
54034;DHT22;39952;40.122;18.294;2022-10-16T08:05:43;21.90;68.30
54034;DHT22;39952;40.122;18.294;2022-10-16T08:08:49;21.80;69.20
54034;DHT22;39952;40.122;18.294;2022-10-16T08:11:56;21.60;70.00
54034;DHT22;39952;40.122;18.294;2022-10-16T08:15:09;21.60;70.00
54034;DHT22;39952;40.122;18.294;2022-10-16T08:18:16;21.90;69.70
54034;DHT22;39952;40.122;18.294;2022-10-16T08:21:22;22.20;68.30
54034;DHT22;39952;40.122;18.294;2022-10-16T08:24:29;22.10;67.70
54034;DHT22;39952;40.122;18.294;2022-10-16T08:27:37;21.70;68.30
54034;DHT22;39952;40.122;18.294;2022-10-16T08:30:45;21.90;67.70
54034;DHT22;39952;40.122;18.294;2022-10-16T08:33:52;22.00;67.00
54034;DHT22;39952;40.122;18.294;2022-10-16T08:36:59;21.80;67.10
54034;DHT22;39952;40.122;18.294;2022-10-16T08:40:11;21.80;67.30
54034;DHT22;39952;40.122;18.294;2022-10-16T08:43:33;21.80;68.10
54034;DHT22;39952;40.122;18.294;2022-10-16T08:46:49;22.30;66.50
54034;DHT22;39952;40.122;18.294;2022-10-16T08:50:00;22.70;65.20
54034;DHT22;39952;40.122;18.294;2022-10-16T08:53:15;22.90;63.60
54034;DHT22;39952;40.122;18.294;2022-10-16T08:56:22;22.60;63.10
54034;DHT22;39952;40.122;18.294;2022-10-16T08:59:30;22.40;63.80
54034;DHT22;39952;40.122;18.294;2022-10-16T09:02:43;22.50;64.20
54034;DHT22;39952;40.122;18.294;2022-10-16T09:06:07;22.50;64.20
54034;DHT22;39952;40.122;18.294;2022-10-16T09:09:38;22.50;64.90
54034;DHT22;39952;40.122;18.294;2022-10-16T09:12:54;24.10;60.70
54034;DHT22;39952;40.122;18.294;2022-10-16T09:16:12;27.10;50.80
54034;DHT22;39952;40.122;18.294;2022-10-16T09:19:25;29.10;45.70
54034;DHT22;39952;40.122;18.294;2022-10-16T09:22:35;30.60;41.00
54034;DHT22;39952;40.122;18.294;2022-10-16T09:25:44;32.30;38.50
54034;DHT22;39952;40.122;18.294;2022-10-16T09:28:53;33.40;36.70
54034;DHT22;39952;40.122;18.294;2022-10-16T09:32:09;32.50;37.70
54034;DHT22;39952;40.122;18.294;2022-10-16T09:35:20;33.50;35.90
54034;DHT22;39952;40.122;18.294;2022-10-16T09:38:29;33.20;35.50
54034;DHT22;39952;40.122;18.294;2022-10-16T09:41:37;33.70;34.50
54034;DHT22;39952;40.122;18.294;2022-10-16T09:44:47;34.10;33.30
54034;DHT22;39952;40.122;18.294;2022-10-16T09:47:55;34.70;31.80
54034;DHT22;39952;40.122;18.294;2022-10-16T09:51:05;34.20;33.00
54034;DHT22;39952;40.122;18.294;2022-10-16T09:54:14;33.90;33.40
54034;DHT22;39952;40.122;18.294;2022-10-16T09:57:22;34.90;32.00
54034;DHT22;39952;40.122;18.294;2022-10-16T10:00:29;34.90;31.10
54034;DHT22;39952;40.122;18.294;2022-10-16T10:03:38;33.30;33.20
54034;DHT22;39952;40.122;18.294;2022-10-16T10:06:49;33.30;34.50
54034;DHT22;39952;40.122;18.294;2022-10-16T10:09:57;33.80;33.30
54034;DHT22;39952;40.122;18.294;2022-10-16T10:13:04;33.50;33.30
54034;DHT22;39952;40.122;18.294;2022-10-16T10:16:11;32.30;35.60
54034;DHT22;39952;40.122;18.294;2022-10-16T10:19:20;31.10;37.20
54034;DHT22;39952;40.122;18.294;2022-10-16T10:22:30;28.30;42.20
54034;DHT22;39952;40.122;18.294;2022-10-16T10:25:53;27.80;44.00
54034;DHT22;39952;40.122;18.294;2022-10-16T10:29:07;27.00;47.00
54034;DHT22;39952;40.122;18.294;2022-10-16T10:32:23;26.70;48.80
54034;DHT22;39952;40.122;18.294;2022-10-16T10:35:44;26.40;47.50
54034;DHT22;39952;40.122;18.294;2022-10-16T10:38:56;26.00;47.30
54034;DHT22;39952;40.122;18.294;2022-10-16T10:42:16;25.70;50.80
54034;DHT22;39952;40.122;18.294;2022-10-16T10:45:27;26.00;50.50
54034;DHT22;39952;40.122;18.294;2022-10-16T10:48:49;26.20;48.70
54034;DHT22;39952;40.122;18.294;2022-10-16T10:52:05;26.40;47.80
54034;DHT22;39952;40.122;18.294;2022-10-16T10:55:23;26.30;47.60
54034;DHT22;39952;40.122;18.294;2022-10-16T10:58:55;25.30;50.80
54034;DHT22;39952;40.122;18.294;2022-10-16T11:02:11;25.50;50.50
54034;DHT22;39952;40.122;18.294;2022-10-16T11:05:41;25.70;50.70
54034;DHT22;39952;40.122;18.294;2022-10-16T11:08:52;26.20;49.30
54034;DHT22;39952;40.122;18.294;2022-10-16T11:12:06;25.50;50.00
54034;DHT22;39952;40.122;18.294;2022-10-16T11:15:17;25.60;49.80
54034;DHT22;39952;40.122;18.294;2022-10-16T11:18:32;25.40;49.70
54034;DHT22;39952;40.122;18.294;2022-10-16T11:21:48;25.20;51.50
54034;DHT22;39952;40.122;18.294;2022-10-16T11:25:02;25.80;49.90
54034;DHT22;39952;40.122;18.294;2022-10-16T11:28:15;25.60;50.20
54034;DHT22;39952;40.122;18.294;2022-10-16T11:31:28;26.20;49.40
54034;DHT22;39952;40.122;18.294;2022-10-16T11:34:43;25.80;48.60
54034;DHT22;39952;40.122;18.294;2022-10-16T11:37:52;25.90;49.90
54034;DHT22;39952;40.122;18.294;2022-10-16T11:41:03;25.90;49.20
54034;DHT22;39952;40.122;18.294;2022-10-16T11:44:40;25.90;49.40
54034;DHT22;39952;40.122;18.294;2022-10-16T11:47:53;26.10;49.80
54034;DHT22;39952;40.122;18.294;2022-10-16T11:51:09;26.00;50.50
54034;DHT22;39952;40.122;18.294;2022-10-16T11:54:22;26.30;49.60
54034;DHT22;39952;40.122;18.294;2022-10-16T11:57:33;26.80;48.00
54034;DHT22;39952;40.122;18.294;2022-10-16T12:00:47;26.20;49.10
54034;DHT22;39952;40.122;18.294;2022-10-16T12:04:05;26.30;49.80
54034;DHT22;39952;40.122;18.294;2022-10-16T12:07:16;26.80;48.30
54034;DHT22;39952;40.122;18.294;2022-10-16T12:10:27;26.90;47.30
54034;DHT22;39952;40.122;18.294;2022-10-16T12:13:36;26.30;48.10
54034;DHT22;39952;40.122;18.294;2022-10-16T12:16:53;26.40;48.20
54034;DHT22;39952;40.122;18.294;2022-10-16T12:20:12;26.20;50.00
54034;DHT22;39952;40.122;18.294;2022-10-16T12:23:21;25.50;51.90
54034;DHT22;39952;40.122;18.294;2022-10-16T12:26:29;25.50;50.40
54034;DHT22;39952;40.122;18.294;2022-10-16T12:29:37;25.30;51.40
54034;DHT22;39952;40.122;18.294;2022-10-16T12:32:53;25.50;52.00
54034;DHT22;39952;40.122;18.294;2022-10-16T12:36:03;25.60;51.90
54034;DHT22;39952;40.122;18.294;2022-10-16T12:39:16;25.60;51.00
54034;DHT22;39952;40.122;18.294;2022-10-16T12:42:34;25.10;51.90
54034;DHT22;39952;40.122;18.294;2022-10-16T12:45:41;24.80;52.10
54034;DHT22;39952;40.122;18.294;2022-10-16T12:48:49;24.80;52.10
54034;DHT22;39952;40.122;18.294;2022-10-16T12:52:28;24.70;53.20
54034;DHT22;39952;40.122;18.294;2022-10-16T12:55:45;24.80;53.50
54034;DHT22;39952;40.122;18.294;2022-10-16T12:58:58;24.90;53.10
54034;DHT22;39952;40.122;18.294;2022-10-16T13:06:08;25.10;53.20
54034;DHT22;39952;40.122;18.294;2022-10-16T13:09:33;24.80;53.20
54034;DHT22;39952;40.122;18.294;2022-10-16T13:13:00;24.40;54.90
54034;DHT22;39952;40.122;18.294;2022-10-16T13:16:17;24.10;55.50
54034;DHT22;39952;40.122;18.294;2022-10-16T13:19:32;24.30;56.10
54034;DHT22;39952;40.122;18.294;2022-10-16T13:22:51;24.20;56.00
54034;DHT22;39952;40.122;18.294;2022-10-16T13:26:09;23.80;56.40
54034;DHT22;39952;40.122;18.294;2022-10-16T13:29:20;23.80;56.90
54034;DHT22;39952;40.122;18.294;2022-10-16T13:32:27;23.80;56.60
54034;DHT22;39952;40.122;18.294;2022-10-16T13:35:35;23.60;56.80
54034;DHT22;39952;40.122;18.294;2022-10-16T13:38:43;23.80;56.50
54034;DHT22;39952;40.122;18.294;2022-10-16T13:42:05;23.80;55.90
54034;DHT22;39952;40.122;18.294;2022-10-16T13:45:20;23.90;55.50
54034;DHT22;39952;40.122;18.294;2022-10-16T13:48:27;23.90;56.40
54034;DHT22;39952;40.122;18.294;2022-10-16T13:51:33;23.80;56.30
54034;DHT22;39952;40.122;18.294;2022-10-16T13:54:41;24.00;55.60
54034;DHT22;39952;40.122;18.294;2022-10-16T13:57:48;23.60;55.70
54034;DHT22;39952;40.122;18.294;2022-10-16T14:00:57;23.80;56.30
54034;DHT22;39952;40.122;18.294;2022-10-16T14:04:06;23.80;55.70
54034;DHT22;39952;40.122;18.294;2022-10-16T14:07:23;23.80;54.60
54034;DHT22;39952;40.122;18.294;2022-10-16T14:10:32;24.10;53.80
54034;DHT22;39952;40.122;18.294;2022-10-16T14:13:43;23.80;55.70
54034;DHT22;39952;40.122;18.294;2022-10-16T14:16:51;23.50;56.60
54034;DHT22;39952;40.122;18.294;2022-10-16T14:19:59;23.30;57.40
54034;DHT22;39952;40.122;18.294;2022-10-16T14:23:21;23.30;57.80
54034;DHT22;39952;40.122;18.294;2022-10-16T14:26:41;23.50;57.10
54034;DHT22;39952;40.122;18.294;2022-10-16T14:29:49;23.70;55.90
54034;DHT22;39952;40.122;18.294;2022-10-16T14:32:58;23.70;55.70
54034;DHT22;39952;40.122;18.294;2022-10-16T14:36:11;23.60;56.20
54034;DHT22;39952;40.122;18.294;2022-10-16T14:39:20;23.20;57.50
54034;DHT22;39952;40.122;18.294;2022-10-16T14:42:29;23.20;57.60
54034;DHT22;39952;40.122;18.294;2022-10-16T14:45:36;23.30;57.40
54034;DHT22;39952;40.122;18.294;2022-10-16T14:48:45;23.30;57.20
54034;DHT22;39952;40.122;18.294;2022-10-16T14:51:54;23.10;57.80
54034;DHT22;39952;40.122;18.294;2022-10-16T14:55:01;23.20;58.20
54034;DHT22;39952;40.122;18.294;2022-10-16T14:58:13;23.10;58.30
54034;DHT22;39952;40.122;18.294;2022-10-16T15:01:21;23.20;58.10
54034;DHT22;39952;40.122;18.294;2022-10-16T15:04:28;23.00;59.60
54034;DHT22;39952;40.122;18.294;2022-10-16T15:07:35;23.20;59.80
54034;DHT22;39952;40.122;18.294;2022-10-16T15:10:43;22.80;60.60
54034;DHT22;39952;40.122;18.294;2022-10-16T15:13:51;22.70;60.80
54034;DHT22;39952;40.122;18.294;2022-10-16T15:16:58;22.70;60.90
54034;DHT22;39952;40.122;18.294;2022-10-16T15:20:05;23.00;59.80
54034;DHT22;39952;40.122;18.294;2022-10-16T15:23:14;22.90;59.40
54034;DHT22;39952;40.122;18.294;2022-10-16T15:26:21;22.80;59.70
54034;DHT22;39952;40.122;18.294;2022-10-16T15:29:29;22.70;60.50
54034;DHT22;39952;40.122;18.294;2022-10-16T15:32:36;22.50;61.10
54034;DHT22;39952;40.122;18.294;2022-10-16T15:35:45;22.70;60.60
54034;DHT22;39952;40.122;18.294;2022-10-16T15:38:52;22.80;59.40
54034;DHT22;39952;40.122;18.294;2022-10-16T15:41:59;22.80;59.70
54034;DHT22;39952;40.122;18.294;2022-10-16T15:45:09;22.70;60.60
54034;DHT22;39952;40.122;18.294;2022-10-16T15:48:15;22.60;61.30
54034;DHT22;39952;40.122;18.294;2022-10-16T15:51:22;22.50;61.30
54034;DHT22;39952;40.122;18.294;2022-10-16T15:54:29;22.30;62.20
54034;DHT22;39952;40.122;18.294;2022-10-16T15:57:35;22.30;62.60
54034;DHT22;39952;40.122;18.294;2022-10-16T16:00:45;22.30;62.80
54034;DHT22;39952;40.122;18.294;2022-10-16T16:03:52;22.30;63.20
54034;DHT22;39952;40.122;18.294;2022-10-16T16:06:59;22.20;63.20
54034;DHT22;39952;40.122;18.294;2022-10-16T16:10:08;22.10;63.70
54034;DHT22;39952;40.122;18.294;2022-10-16T16:13:15;22.00;64.10
54034;DHT22;39952;40.122;18.294;2022-10-16T16:16:23;21.90;64.60
54034;DHT22;39952;40.122;18.294;2022-10-16T16:19:30;21.80;65.00
54034;DHT22;39952;40.122;18.294;2022-10-16T16:22:37;21.80;65.40
54034;DHT22;39952;40.122;18.294;2022-10-16T16:25:43;21.70;65.70
54034;DHT22;39952;40.122;18.294;2022-10-16T16:28:50;21.60;66.20
54034;DHT22;39952;40.122;18.294;2022-10-16T16:31:59;21.60;66.30
54034;DHT22;39952;40.122;18.294;2022-10-16T16:35:06;21.60;66.60
54034;DHT22;39952;40.122;18.294;2022-10-16T16:38:12;21.60;66.70
54034;DHT22;39952;40.122;18.294;2022-10-16T16:41:20;21.50;67.00
54034;DHT22;39952;40.122;18.294;2022-10-16T16:44:27;21.50;67.40
54034;DHT22;39952;40.122;18.294;2022-10-16T16:47:35;21.40;67.50
54034;DHT22;39952;40.122;18.294;2022-10-16T16:50:43;21.50;67.50
54034;DHT22;39952;40.122;18.294;2022-10-16T16:53:51;21.90;66.20
54034;DHT22;39952;40.122;18.294;2022-10-16T16:56:58;22.20;65.10
54034;DHT22;39952;40.122;18.294;2022-10-16T17:00:06;22.30;64.50
54034;DHT22;39952;40.122;18.294;2022-10-16T17:03:14;22.30;64.10
54034;DHT22;39952;40.122;18.294;2022-10-16T17:06:22;22.30;64.40
54034;DHT22;39952;40.122;18.294;2022-10-16T17:09:31;22.30;63.90
54034;DHT22;39952;40.122;18.294;2022-10-16T17:12:37;22.10;64.70
54034;DHT22;39952;40.122;18.294;2022-10-16T17:15:46;22.00;65.20
54034;DHT22;39952;40.122;18.294;2022-10-16T17:18:54;21.90;65.20
54034;DHT22;39952;40.122;18.294;2022-10-16T17:22:01;22.10;64.70
54034;DHT22;39952;40.122;18.294;2022-10-16T17:25:12;22.20;64.60
54034;DHT22;39952;40.122;18.294;2022-10-16T17:28:19;22.10;64.30
54034;DHT22;39952;40.122;18.294;2022-10-16T17:31:27;22.00;65.00
54034;DHT22;39952;40.122;18.294;2022-10-16T17:34:35;21.70;65.30
54034;DHT22;39952;40.122;18.294;2022-10-16T17:37:42;21.60;66.40
54034;DHT22;39952;40.122;18.294;2022-10-16T17:40:49;21.80;65.70
54034;DHT22;39952;40.122;18.294;2022-10-16T17:43:56;21.90;65.70
54034;DHT22;39952;40.122;18.294;2022-10-16T17:47:02;21.80;65.70
54034;DHT22;39952;40.122;18.294;2022-10-16T17:50:11;21.80;65.90
54034;DHT22;39952;40.122;18.294;2022-10-16T17:53:19;21.90;65.50
54034;DHT22;39952;40.122;18.294;2022-10-16T17:56:26;21.90;65.60
54034;DHT22;39952;40.122;18.294;2022-10-16T17:59:33;21.70;65.80
54034;DHT22;39952;40.122;18.294;2022-10-16T18:02:40;21.70;66.50
54034;DHT22;39952;40.122;18.294;2022-10-16T18:05:48;21.70;66.30
54034;DHT22;39952;40.122;18.294;2022-10-16T18:08:57;21.70;66.20
54034;DHT22;39952;40.122;18.294;2022-10-16T18:12:05;21.70;66.50
54034;DHT22;39952;40.122;18.294;2022-10-16T18:15:12;21.70;66.50
54034;DHT22;39952;40.122;18.294;2022-10-16T18:18:19;21.70;66.50
54034;DHT22;39952;40.122;18.294;2022-10-16T18:21:29;21.70;66.80
54034;DHT22;39952;40.122;18.294;2022-10-16T18:24:36;21.70;66.70
54034;DHT22;39952;40.122;18.294;2022-10-16T18:27:43;21.60;67.00
54034;DHT22;39952;40.122;18.294;2022-10-16T18:30:56;21.50;67.20
54034;DHT22;39952;40.122;18.294;2022-10-16T18:34:04;21.50;67.20
54034;DHT22;39952;40.122;18.294;2022-10-16T18:37:12;21.50;67.60
54034;DHT22;39952;40.122;18.294;2022-10-16T18:40:19;21.50;67.60
54034;DHT22;39952;40.122;18.294;2022-10-16T18:43:26;21.30;68.30
54034;DHT22;39952;40.122;18.294;2022-10-16T18:46:34;21.40;67.90
54034;DHT22;39952;40.122;18.294;2022-10-16T18:49:40;21.50;67.90
54034;DHT22;39952;40.122;18.294;2022-10-16T18:52:49;21.40;67.80
54034;DHT22;39952;40.122;18.294;2022-10-16T18:55:56;21.40;68.30
54034;DHT22;39952;40.122;18.294;2022-10-16T18:59:06;21.50;68.00
54034;DHT22;39952;40.122;18.294;2022-10-16T19:02:13;21.50;67.90
54034;DHT22;39952;40.122;18.294;2022-10-16T19:05:20;21.50;68.00
54034;DHT22;39952;40.122;18.294;2022-10-16T19:08:29;21.30;68.10
54034;DHT22;39952;40.122;18.294;2022-10-16T19:11:38;21.20;68.80
54034;DHT22;39952;40.122;18.294;2022-10-16T19:14:47;21.30;68.70
54034;DHT22;39952;40.122;18.294;2022-10-16T19:17:54;21.30;68.00
54034;DHT22;39952;40.122;18.294;2022-10-16T19:21:00;21.20;68.70
54034;DHT22;39952;40.122;18.294;2022-10-16T19:24:11;21.20;68.90
54034;DHT22;39952;40.122;18.294;2022-10-16T19:27:19;21.00;69.00
54034;DHT22;39952;40.122;18.294;2022-10-16T19:30:25;20.80;70.00
54034;DHT22;39952;40.122;18.294;2022-10-16T19:33:33;20.90;69.90
54034;DHT22;39952;40.122;18.294;2022-10-16T19:36:40;21.00;69.50
54034;DHT22;39952;40.122;18.294;2022-10-16T19:39:49;20.90;69.90
54034;DHT22;39952;40.122;18.294;2022-10-16T19:42:56;21.10;69.30